createdAt,value
2022-08-16T00:02:30.595Z,2.30
2022-08-16T00:04:59.605Z,2.30
2022-08-16T00:07:29.113Z,2.08
2022-08-16T00:09:57.445Z,2.30
2022-08-16T00:12:24.972Z,2.47
2022-08-16T00:14:56.437Z,2.35
2022-08-16T00:17:23.804Z,2.20
2022-08-16T00:19:53.539Z,2.83
2022-08-16T00:22:24.978Z,2.30
2022-08-16T00:24:53.510Z,2.20
2022-08-16T00:27:21.635Z,2.40
2022-08-16T00:30:08.574Z,2.50
2022-08-16T00:32:36.812Z,2.13
2022-08-16T00:35:15.259Z,3.25
2022-08-16T00:37:58.553Z,1.85
2022-08-16T00:40:53.783Z,2.25
2022-08-16T00:43:24.733Z,1.92
2022-08-16T00:46:22.218Z,2.90
2022-08-16T00:48:52.764Z,2.20
2022-08-16T00:51:22.528Z,2.75
2022-08-16T00:53:52.091Z,2.00
2022-08-16T00:56:56.951Z,2.42
2022-08-16T00:59:11.860Z,1.90
2022-08-16T01:01:43.239Z,2.22
2022-08-16T01:04:28.895Z,2.50
2022-08-16T01:07:01.205Z,2.55
2022-08-16T01:09:33.281Z,2.47
2022-08-16T01:12:02.183Z,2.42
2022-08-16T01:14:34.076Z,2.50
2022-08-16T01:17:01.642Z,2.58
2022-08-16T01:19:35.055Z,2.30
2022-08-16T01:22:47.008Z,2.17
2022-08-16T01:25:11.892Z,2.65
2022-08-16T01:27:49.801Z,2.28
2022-08-16T01:30:26.150Z,1.70
2022-08-16T01:33:02.348Z,2.72
2022-08-16T01:35:52.557Z,2.45
2022-08-16T01:38:49.047Z,2.25
2022-08-16T01:41:29.687Z,1.85
2022-08-16T01:44:01.103Z,2.15
2022-08-16T01:46:42.166Z,2.00
2022-08-16T01:49:14.730Z,1.98
2022-08-16T01:51:44.732Z,2.30
2022-08-16T01:54:13.298Z,2.90
2022-08-16T01:56:42.591Z,2.25
2022-08-16T01:59:16.084Z,1.90
2022-08-16T02:01:49.802Z,1.83
2022-08-16T02:04:48.007Z,2.08
2022-08-16T02:07:11.445Z,2.20
2022-08-16T02:09:39.199Z,2.30
2022-08-16T02:12:50.340Z,2.00
2022-08-16T02:14:55.622Z,3.42
2022-08-16T02:17:22.227Z,2.20
2022-08-16T02:19:58.816Z,1.60
2022-08-16T02:22:34.180Z,2.00
2022-08-16T02:25:09.786Z,2.35
2022-08-16T02:27:36.866Z,2.13
2022-08-16T02:30:07.660Z,2.63
2022-08-16T02:32:50.752Z,3.17
2022-08-16T02:35:23.170Z,1.90
2022-08-16T02:37:52.607Z,1.98
2022-08-16T02:40:21.387Z,2.67
2022-08-16T02:42:50.632Z,2.28
2022-08-16T02:45:19.624Z,1.92
2022-08-16T02:48:01.075Z,1.88
2022-08-16T02:50:54.573Z,3.50
2022-08-16T02:53:23.645Z,1.80
2022-08-16T02:55:50.697Z,2.30
2022-08-16T02:58:18.140Z,2.10
2022-08-16T03:00:45.483Z,2.53
2022-08-16T03:03:18.013Z,2.15
2022-08-16T03:05:49.966Z,2.10
2022-08-16T03:08:50.140Z,2.30
2022-08-16T03:11:16.686Z,2.00
2022-08-16T03:13:51.249Z,1.70
2022-08-16T03:16:33.136Z,1.98
2022-08-16T03:19:06.348Z,2.45
2022-08-16T03:21:37.488Z,2.30
2022-08-16T03:24:29.215Z,1.73
2022-08-16T03:26:53.253Z,2.17
2022-08-16T03:29:27.305Z,1.95
2022-08-16T03:31:59.135Z,2.05
2022-08-16T03:34:27.468Z,1.60
2022-08-16T03:36:55.183Z,2.20
2022-08-16T03:39:22.531Z,2.10
2022-08-16T03:41:51.572Z,2.05
2022-08-16T03:44:44.351Z,2.00
2022-08-16T03:47:13.260Z,1.95
2022-08-16T03:49:51.405Z,1.38
2022-08-16T03:52:20.054Z,2.33
2022-08-16T03:54:53.561Z,2.08
2022-08-16T03:57:31.922Z,1.70
2022-08-16T04:00:20.776Z,1.98
2022-08-16T04:03:07.298Z,2.35
2022-08-16T04:05:40.790Z,2.17
2022-08-16T04:08:23.219Z,1.85
2022-08-16T04:10:53.267Z,1.70
2022-08-16T04:14:00.301Z,2.45
2022-08-16T04:16:09.629Z,1.67
2022-08-16T04:18:54.504Z,2.20
2022-08-16T04:21:30.567Z,2.05
2022-08-16T04:23:59.182Z,1.80
2022-08-16T04:26:25.793Z,2.83
2022-08-16T04:29:16.222Z,1.95
2022-08-16T04:31:47.416Z,1.73
2022-08-16T04:34:24.781Z,2.20
2022-08-16T04:36:51.530Z,2.03
2022-08-16T04:39:20.182Z,2.10
2022-08-16T04:41:56.931Z,1.70
2022-08-16T04:44:32.522Z,2.00
2022-08-16T04:47:24.144Z,1.80
2022-08-16T04:49:52.392Z,2.08
2022-08-16T04:52:32.679Z,2.40
2022-08-16T04:55:22.199Z,1.77
2022-08-16T04:57:59.238Z,1.88
2022-08-16T05:00:34.373Z,1.70
2022-08-16T05:03:07.661Z,1.77
2022-08-16T05:05:45.315Z,1.75
2022-08-16T05:08:29.111Z,1.88
2022-08-16T05:11:03.579Z,2.05
2022-08-16T05:13:39.774Z,1.90
2022-08-16T05:16:23.114Z,2.47
2022-08-16T05:18:52.425Z,1.70
2022-08-16T05:21:21.418Z,1.83
2022-08-16T05:23:55.697Z,1.63
2022-08-16T05:26:24.528Z,1.60
2022-08-16T05:28:55.494Z,1.80
2022-08-16T05:31:29.284Z,1.98
2022-08-16T05:33:57.613Z,1.98
2022-08-16T05:36:24.946Z,2.08
2022-08-16T05:39:04.836Z,1.98
2022-08-16T05:41:31.428Z,2.00
2022-08-16T05:44:05.388Z,1.85
2022-08-16T05:46:33.146Z,2.10
2022-08-16T05:49:09.106Z,1.90
2022-08-16T05:51:38.438Z,1.85
2022-08-16T05:54:06.733Z,1.60
2022-08-16T05:56:34.148Z,2.13
2022-08-16T05:59:06.411Z,1.75
2022-08-16T06:01:37.893Z,2.05
2022-08-16T06:04:13.779Z,1.48
2022-08-16T06:06:55.987Z,1.50
2022-08-16T06:09:25.942Z,1.75
2022-08-16T06:12:10.382Z,1.52
2022-08-16T06:14:37.841Z,2.08
2022-08-16T06:17:06.916Z,1.52
2022-08-16T06:19:33.988Z,1.80
2022-08-16T06:22:02.544Z,1.50
2022-08-16T06:24:54.632Z,1.88
2022-08-16T06:27:15.955Z,1.67
2022-08-16T06:29:49.961Z,1.60
2022-08-16T06:32:27.665Z,1.30
2022-08-16T06:35:02.837Z,2.03
2022-08-16T06:37:37.423Z,1.88
2022-08-16T06:40:12.873Z,1.52
2022-08-16T06:42:47.555Z,1.40
2022-08-16T06:45:15.305Z,1.42
2022-08-16T06:47:52.875Z,1.50
2022-08-16T06:50:22.049Z,2.00
2022-08-16T06:52:57.826Z,1.60
2022-08-16T06:55:34.128Z,1.45
2022-08-16T06:58:01.888Z,1.20
2022-08-16T07:00:37.634Z,1.50
2022-08-16T07:05:57.853Z,1.70
2022-08-16T07:08:27.477Z,1.40
2022-08-16T07:10:54.675Z,1.42
2022-08-16T07:14:00.776Z,1.27
2022-08-16T07:16:15.464Z,1.35
2022-08-16T07:18:58.822Z,1.30
2022-08-16T07:21:46.646Z,1.60
2022-08-16T07:24:29.469Z,1.30
2022-08-16T07:26:58.943Z,1.63
2022-08-16T07:29:27.996Z,2.05
2022-08-16T07:31:58.904Z,1.77
2022-08-16T07:34:35.797Z,1.92
2022-08-16T07:37:07.848Z,1.45
2022-08-16T07:39:43.306Z,1.15
2022-08-16T07:42:26.099Z,1.50
2022-08-16T07:44:57.174Z,1.35
2022-08-16T07:47:31.722Z,1.30
2022-08-16T07:49:59.746Z,1.60
2022-08-16T07:52:29.753Z,1.23
2022-08-16T07:54:57.948Z,1.80
2022-08-16T07:57:25.311Z,1.42
2022-08-16T07:59:53.095Z,1.30
2022-08-16T08:02:21.087Z,1.77
2022-08-16T08:04:48.565Z,1.67
2022-08-16T08:07:16.346Z,1.35
2022-08-16T08:09:44.139Z,1.20
2022-08-16T08:12:31.445Z,1.00
2022-08-16T08:14:59.999Z,1.48
2022-08-16T08:17:42.056Z,1.33
2022-08-16T08:20:20.760Z,1.20
2022-08-16T08:23:00.539Z,1.42
2022-08-16T08:25:53.932Z,1.77
2022-08-16T08:28:18.810Z,1.60
2022-08-16T08:30:51.003Z,1.63
2022-08-16T08:33:23.820Z,1.48
2022-08-16T08:35:50.483Z,1.30
2022-08-16T08:38:43.737Z,1.40
2022-08-16T08:41:08.731Z,1.25
2022-08-16T08:43:41.491Z,1.38
2022-08-16T08:46:17.916Z,1.38
2022-08-16T08:49:00.166Z,1.48
2022-08-16T08:51:31.883Z,1.42
2022-08-16T08:54:06.897Z,1.20
2022-08-16T08:56:37.569Z,2.25
2022-08-16T08:59:12.971Z,1.70
2022-08-16T09:01:43.199Z,1.40
2022-08-16T09:04:23.981Z,1.63
2022-08-16T09:06:53.996Z,1.30
2022-08-16T09:09:21.620Z,1.25
2022-08-16T09:11:53.429Z,1.00
2022-08-16T09:14:33.048Z,1.30
2022-08-16T09:17:02.695Z,1.40
2022-08-16T09:19:34.074Z,1.23
2022-08-16T09:22:01.419Z,1.38
2022-08-16T09:24:46.849Z,1.52
2022-08-16T09:27:14.878Z,1.55
2022-08-16T09:29:45.289Z,1.27
2022-08-16T09:32:12.683Z,1.55
2022-08-16T09:34:58.301Z,1.10
2022-08-16T09:37:29.656Z,1.50
2022-08-16T09:40:00.549Z,1.55
2022-08-16T09:42:29.223Z,0.85
2022-08-16T09:45:11.776Z,1.50
2022-08-16T09:47:56.674Z,1.30
2022-08-16T09:50:37.135Z,1.15
2022-08-16T09:53:16.609Z,1.40
2022-08-16T09:55:50.294Z,0.88
2022-08-16T09:58:41.481Z,1.33
2022-08-16T10:01:08.332Z,1.20
2022-08-16T10:03:35.426Z,1.20
2022-08-16T10:06:02.213Z,1.50
2022-08-16T10:08:28.894Z,0.90
2022-08-16T10:11:15.764Z,1.25
2022-08-16T10:13:51.504Z,1.30
2022-08-16T10:16:21.815Z,1.20
2022-08-16T10:19:01.821Z,1.00
2022-08-16T10:21:33.592Z,1.25
2022-08-16T10:24:02.291Z,1.33
2022-08-16T10:27:16.667Z,1.40
2022-08-16T10:29:20.136Z,1.20
2022-08-16T10:31:53.538Z,1.10
2022-08-16T10:34:31.708Z,1.15
2022-08-16T10:37:00.176Z,1.45
2022-08-16T10:39:26.941Z,0.95
2022-08-16T10:42:08.209Z,1.63
2022-08-16T10:44:35.043Z,1.85
2022-08-16T10:47:02.350Z,1.00
2022-08-16T10:49:30.610Z,1.42
2022-08-16T10:52:03.002Z,1.08
2022-08-16T10:54:59.961Z,1.42
2022-08-16T10:57:33.212Z,0.88
2022-08-16T11:00:04.797Z,0.98
2022-08-16T11:02:58.929Z,1.00
2022-08-16T11:05:18.617Z,1.10
2022-08-16T11:07:51.951Z,1.00
2022-08-16T11:13:57.274Z,1.23
2022-08-16T11:19:04.260Z,1.00
2022-08-16T11:21:33.502Z,1.35
2022-08-16T11:24:01.966Z,1.25
2022-08-16T11:26:30.312Z,1.30
2022-08-16T11:29:13.849Z,1.08
2022-08-16T11:31:45.658Z,1.05
2022-08-16T11:34:21.219Z,1.05
2022-08-16T11:36:53.676Z,1.17
2022-08-16T11:39:29.450Z,0.98
2022-08-16T11:41:56.722Z,1.40
2022-08-16T11:44:52.484Z,0.90
2022-08-16T11:47:11.616Z,1.05
2022-08-16T11:49:38.342Z,0.93
2022-08-16T11:52:05.450Z,1.30
2022-08-16T11:54:36.330Z,1.00
2022-08-16T11:57:04.563Z,0.90
2022-08-16T11:59:39.878Z,0.90
2022-08-16T12:02:31.072Z,1.35
2022-08-16T12:04:56.083Z,1.58
2022-08-16T12:07:23.769Z,1.05
2022-08-16T12:09:53.211Z,1.13
2022-08-16T12:12:21.035Z,0.80
2022-08-16T12:14:59.376Z,1.10
2022-08-16T12:17:32.193Z,1.25
2022-08-16T12:20:05.243Z,1.60
2022-08-16T12:22:36.711Z,1.20
2022-08-16T12:25:09.437Z,1.77
2022-08-16T12:27:37.549Z,1.27
2022-08-16T12:30:07.379Z,1.20
2022-08-16T12:32:52.870Z,1.48
2022-08-16T12:35:24.696Z,1.30
2022-08-16T12:37:56.665Z,1.15
2022-08-16T12:40:29.108Z,1.10
2022-08-16T12:43:00.726Z,1.10
2022-08-16T12:45:31.968Z,1.20
2022-08-16T12:48:35.021Z,1.23
2022-08-16T12:51:13.497Z,1.50
2022-08-16T12:53:47.794Z,1.08
2022-08-16T12:56:16.979Z,1.20
2022-08-16T12:58:51.726Z,1.13
2022-08-16T13:01:22.576Z,1.27
2022-08-16T13:03:59.144Z,1.30
2022-08-16T13:06:32.071Z,1.38
2022-08-16T13:09:02.491Z,1.13
2022-08-16T13:11:38.415Z,1.50
2022-08-16T13:14:08.026Z,1.20
2022-08-16T13:16:45.938Z,1.30
2022-08-16T13:19:12.619Z,1.40
2022-08-16T13:21:39.236Z,1.40
2022-08-16T13:24:08.197Z,1.30
2022-08-16T13:26:34.811Z,1.10
2022-08-16T13:29:01.419Z,1.55
2022-08-16T13:31:27.967Z,1.85
2022-08-16T13:33:58.928Z,1.48
2022-08-16T13:36:48.058Z,1.30
2022-08-16T13:39:12.714Z,1.80
2022-08-16T13:41:39.368Z,2.08
2022-08-16T13:44:09.177Z,1.10
2022-08-16T13:46:37.118Z,1.20
2022-08-16T13:49:04.276Z,1.00
2022-08-16T13:51:31.233Z,1.25
2022-08-16T13:54:03.749Z,1.15
2022-08-16T13:56:36.794Z,1.17
2022-08-16T13:59:16.524Z,1.33
2022-08-16T14:01:55.140Z,1.10
2022-08-16T14:04:27.684Z,1.10
2022-08-16T14:06:56.260Z,1.33
2022-08-16T14:09:23.961Z,1.23
2022-08-16T14:11:53.424Z,1.20
2022-08-16T14:14:28.386Z,1.17
2022-08-16T14:16:57.528Z,1.15
2022-08-16T14:19:24.185Z,1.08
2022-08-16T14:22:14.786Z,1.45
2022-08-16T14:24:45.182Z,1.33
2022-08-16T14:27:15.007Z,1.52
2022-08-16T14:29:42.334Z,1.23
2022-08-16T14:32:09.390Z,1.05
2022-08-16T14:34:40.412Z,1.25
2022-08-16T14:37:07.962Z,1.08
2022-08-16T14:39:35.368Z,0.93
2022-08-16T14:42:25.597Z,1.00
2022-08-16T14:44:53.207Z,1.17
2022-08-16T14:47:22.738Z,1.50
2022-08-16T14:49:49.772Z,1.00
2022-08-16T14:52:44.458Z,0.95
2022-08-16T14:55:10.895Z,1.33
2022-08-16T14:57:39.039Z,0.80
2022-08-16T15:00:09.731Z,1.10
2022-08-16T15:02:39.203Z,0.80
2022-08-16T15:05:09.322Z,0.82
2022-08-16T15:07:36.332Z,0.90
2022-08-16T15:10:12.081Z,1.02
2022-08-16T15:12:54.205Z,0.85
2022-08-16T15:15:24.328Z,1.02
2022-08-16T15:17:56.235Z,0.90
2022-08-16T15:20:28.059Z,0.90
2022-08-16T15:22:58.086Z,0.90
2022-08-16T15:25:41.344Z,0.93
2022-08-16T15:28:23.970Z,1.15
2022-08-16T15:31:01.012Z,0.82
2022-08-16T15:33:33.894Z,1.20
2022-08-16T15:36:02.618Z,0.90
2022-08-16T15:38:54.968Z,0.80
2022-08-16T15:41:33.820Z,1.27
2022-08-16T15:44:05.577Z,1.15
2022-08-16T15:46:55.837Z,1.05
2022-08-16T15:49:36.940Z,0.90
2022-08-16T15:52:15.033Z,1.52
2022-08-16T15:54:52.469Z,1.23
2022-08-16T15:57:20.187Z,1.00
2022-08-16T15:59:52.542Z,1.10
2022-08-16T16:02:29.395Z,1.00
2022-08-16T16:05:01.570Z,0.98
2022-08-16T16:07:30.336Z,0.93
2022-08-16T16:09:59.237Z,1.48
2022-08-16T16:12:50.968Z,1.20
2022-08-16T16:15:18.629Z,1.20
2022-08-16T16:17:50.908Z,1.20
2022-08-16T16:20:21.116Z,1.40
2022-08-16T16:22:49.815Z,0.90
2022-08-16T16:25:17.478Z,1.35
2022-08-16T16:27:45.508Z,1.10
2022-08-16T16:30:37.293Z,1.00
2022-08-16T16:33:02.929Z,0.82
2022-08-16T16:35:32.901Z,0.90
2022-08-16T16:38:00.548Z,1.15
2022-08-16T16:40:32.829Z,0.98
2022-08-16T16:43:00.466Z,0.90
2022-08-16T16:45:34.838Z,1.00
2022-08-16T16:48:12.081Z,1.75
2022-08-16T16:50:44.574Z,1.33
2022-08-16T16:53:17.709Z,1.02
2022-08-16T16:55:47.799Z,0.82
2022-08-16T16:58:43.314Z,1.20
2022-08-16T17:01:10.960Z,1.10
2022-08-16T17:03:38.616Z,1.10
2022-08-16T17:06:09.088Z,0.90
2022-08-16T17:08:40.631Z,1.10
2022-08-16T17:11:08.226Z,0.85
2022-08-16T17:13:35.261Z,0.93
2022-08-16T17:16:02.297Z,0.90
2022-08-16T17:19:16.902Z,0.63
2022-08-16T17:21:17.896Z,2.00
2022-08-16T17:23:58.870Z,1.15
2022-08-16T17:26:30.050Z,0.80
2022-08-16T17:29:02.622Z,0.90
2022-08-16T17:31:40.661Z,1.00
2022-08-16T17:34:28.604Z,0.73
2022-08-16T17:36:56.747Z,0.75
2022-08-16T17:39:25.719Z,1.20
2022-08-16T17:41:52.611Z,0.98
2022-08-16T17:44:19.424Z,0.70
2022-08-16T17:46:51.734Z,1.10
2022-08-16T17:49:19.360Z,1.15
2022-08-16T17:51:46.154Z,0.75
2022-08-16T17:54:30.238Z,0.98
2022-08-16T17:57:01.320Z,0.85
2022-08-16T17:59:30.432Z,1.30
2022-08-16T18:01:58.200Z,0.90
2022-08-16T18:04:49.707Z,1.42
2022-08-16T18:07:12.590Z,1.10
2022-08-16T18:09:41.009Z,0.77
2022-08-16T18:12:44.906Z,1.20
2022-08-16T18:15:08.603Z,1.75
2022-08-16T18:17:35.708Z,0.90
2022-08-16T18:20:02.439Z,1.00
2022-08-16T18:22:32.199Z,0.82
2022-08-16T18:24:59.125Z,0.98
2022-08-16T18:27:28.609Z,1.20
2022-08-16T18:29:55.671Z,1.00
2022-08-16T18:32:24.481Z,1.40
2022-08-16T18:34:52.338Z,0.98
2022-08-16T18:37:19.890Z,1.05
2022-08-16T18:39:46.662Z,1.05
2022-08-16T18:42:14.928Z,1.35
2022-08-16T18:44:44.171Z,1.45
2022-08-16T18:47:11.201Z,0.90
2022-08-16T18:49:38.730Z,1.20
2022-08-16T18:52:06.691Z,0.85
2022-08-16T18:54:34.223Z,1.00
2022-08-16T18:57:20.845Z,1.30
2022-08-16T18:59:48.344Z,1.27
2022-08-16T19:02:56.145Z,1.35
2022-08-16T19:05:20.823Z,1.20
2022-08-16T19:07:48.384Z,0.98
2022-08-16T19:10:15.910Z,1.00
2022-08-16T19:12:43.227Z,1.33
2022-08-16T19:15:17.545Z,1.48
2022-08-16T19:17:46.626Z,0.88
2022-08-16T19:20:16.422Z,0.93
2022-08-16T19:25:48.332Z,0.85
2022-08-16T19:28:51.343Z,1.05
2022-08-16T19:31:21.330Z,1.38
2022-08-16T19:33:54.173Z,1.10
2022-08-16T19:36:31.039Z,1.42
2022-08-16T19:39:04.613Z,1.38
2022-08-16T19:41:33.086Z,1.55
2022-08-16T19:43:59.771Z,1.50
2022-08-16T19:46:26.529Z,1.45
2022-08-16T19:48:53.152Z,1.67
2022-08-16T19:51:19.745Z,1.40
2022-08-16T19:53:46.352Z,1.20
2022-08-16T19:56:13.024Z,1.25
2022-08-16T19:58:51.010Z,1.75
2022-08-16T20:01:26.144Z,1.60
2022-08-16T20:03:52.621Z,1.33
2022-08-16T20:06:38.652Z,1.35
2022-08-16T20:09:06.428Z,1.75
2022-08-16T20:11:34.333Z,1.42
2022-08-16T20:14:01.001Z,1.42
2022-08-16T20:16:27.510Z,1.27
2022-08-16T20:18:54.081Z,1.30
2022-08-16T20:21:20.832Z,1.40
2022-08-16T20:23:47.431Z,1.42
2022-08-16T20:26:14.177Z,1.60
2022-08-16T20:28:52.605Z,1.55
2022-08-16T20:31:24.455Z,1.67
2022-08-16T20:33:53.052Z,1.40
2022-08-16T20:36:19.786Z,1.45
2022-08-16T20:38:47.888Z,1.60
2022-08-16T20:41:16.605Z,1.40
2022-08-16T20:43:43.913Z,1.48
2022-08-16T20:46:12.514Z,1.25
2022-08-16T20:48:39.210Z,1.83
2022-08-16T20:51:06.916Z,1.73
2022-08-16T20:53:34.041Z,1.65
2022-08-16T20:56:00.717Z,1.70
2022-08-16T20:58:27.455Z,1.67
2022-08-16T21:00:54.209Z,1.40
2022-08-16T21:03:20.870Z,1.10
2022-08-16T21:05:47.570Z,1.38
2022-08-16T21:08:50.776Z,1.65
2022-08-16T21:11:03.463Z,2.40
2022-08-16T21:13:31.065Z,1.90
2022-08-16T21:15:58.865Z,1.33
2022-08-16T21:18:26.222Z,1.60
2022-08-16T21:20:53.848Z,1.50
2022-08-16T21:23:21.333Z,1.42
2022-08-16T21:25:58.087Z,1.40
2022-08-16T21:28:40.878Z,1.40
2022-08-16T21:31:15.312Z,1.23
2022-08-16T21:33:43.306Z,1.33
2022-08-16T21:36:11.241Z,1.10
2022-08-16T21:38:38.437Z,1.65
2022-08-16T21:41:08.553Z,1.40
2022-08-16T21:43:35.368Z,1.40
2022-08-16T21:46:03.530Z,1.58
2022-08-16T21:48:33.540Z,1.80
2022-08-16T21:51:01.053Z,1.52
2022-08-16T21:53:28.540Z,1.20
2022-08-16T21:55:58.007Z,1.40
2022-08-16T21:58:25.508Z,1.45
2022-08-16T22:00:52.164Z,1.58
2022-08-16T22:03:19.116Z,1.30
2022-08-16T22:06:11.596Z,1.77
2022-08-16T22:08:35.845Z,1.30
2022-08-16T22:11:15.599Z,1.30
2022-08-16T22:13:42.170Z,1.83
2022-08-16T22:16:15.970Z,1.27
2022-08-16T22:18:42.477Z,1.15
2022-08-16T22:21:18.986Z,1.67
2022-08-16T22:23:45.633Z,1.35
2022-08-16T22:26:30.880Z,1.27
2022-08-16T22:29:04.675Z,1.48
2022-08-16T22:31:32.524Z,1.73
2022-08-16T22:34:01.919Z,1.40
2022-08-16T22:36:30.320Z,1.70
2022-08-16T22:38:59.317Z,1.40
2022-08-16T22:41:28.169Z,1.23
2022-08-16T22:43:55.009Z,1.23
2022-08-16T22:46:21.710Z,1.15
2022-08-16T22:48:50.575Z,1.50
2022-08-16T22:51:19.013Z,1.70
2022-08-16T22:53:46.035Z,1.50
2022-08-16T22:56:12.827Z,1.48
2022-08-16T22:58:39.689Z,1.58
2022-08-16T23:01:07.852Z,1.50
2022-08-16T23:03:35.253Z,1.52
2022-08-16T23:06:02.182Z,1.50
2022-08-16T23:08:39.388Z,1.70
2022-08-16T23:11:14.407Z,1.35
2022-08-16T23:13:52.749Z,1.50
2022-08-16T23:16:33.483Z,1.73
2022-08-16T23:19:09.891Z,1.38
2022-08-16T23:21:38.458Z,1.48
2022-08-16T23:24:06.657Z,1.27
2022-08-16T23:26:45.090Z,1.60
2022-08-16T23:29:21.951Z,1.38
2022-08-16T23:31:58.766Z,2.03
2022-08-16T23:34:27.291Z,2.00
2022-08-16T23:36:54.189Z,1.38
2022-08-16T23:39:20.858Z,1.75
2022-08-16T23:41:47.503Z,1.63
2022-08-16T23:44:55.699Z,1.98
2022-08-16T23:47:00.826Z,1.80
2022-08-16T23:49:57.516Z,1.65
2022-08-16T23:52:14.035Z,1.77
2022-08-16T23:54:40.609Z,1.45
2022-08-16T23:57:08.238Z,1.50
2022-08-16T23:59:45.855Z,1.55
